sensor_id;sensor_type;location;lat;lon;timestamp;P1;durP1;ratioP1;P2;durP2;ratioP2
1837;SDS011;918;50.796;6.772;2022-11-20T00:00:19;21.70;;;17.93;;
1837;SDS011;918;50.796;6.772;2022-11-20T00:02:44;20.50;;;17.20;;
1837;SDS011;918;50.796;6.772;2022-11-20T00:05:10;19.10;;;15.93;;
1837;SDS011;918;50.796;6.772;2022-11-20T00:07:35;19.73;;;15.80;;
1837;SDS011;918;50.796;6.772;2022-11-20T00:10:00;18.83;;;16.20;;
1837;SDS011;918;50.796;6.772;2022-11-20T00:12:26;20.57;;;17.33;;
1837;SDS011;918;50.796;6.772;2022-11-20T00:14:51;18.17;;;16.23;;
1837;SDS011;918;50.796;6.772;2022-11-20T00:17:17;21.77;;;16.73;;
1837;SDS011;918;50.796;6.772;2022-11-20T00:19:42;20.80;;;16.83;;
1837;SDS011;918;50.796;6.772;2022-11-20T00:22:07;20.03;;;17.20;;
1837;SDS011;918;50.796;6.772;2022-11-20T00:24:32;23.43;;;18.00;;
1837;SDS011;918;50.796;6.772;2022-11-20T00:26:58;20.27;;;16.47;;
1837;SDS011;918;50.796;6.772;2022-11-20T00:29:23;18.80;;;15.90;;
1837;SDS011;918;50.796;6.772;2022-11-20T00:31:48;19.23;;;17.27;;
1837;SDS011;918;50.796;6.772;2022-11-20T00:34:13;21.30;;;18.37;;
1837;SDS011;918;50.796;6.772;2022-11-20T00:36:38;19.17;;;17.10;;
1837;SDS011;918;50.796;6.772;2022-11-20T00:39:04;19.17;;;17.00;;
1837;SDS011;918;50.796;6.772;2022-11-20T00:41:29;20.53;;;15.90;;
1837;SDS011;918;50.796;6.772;2022-11-20T00:43:55;20.80;;;16.20;;
1837;SDS011;918;50.796;6.772;2022-11-20T00:46:24;19.10;;;16.60;;
1837;SDS011;918;50.796;6.772;2022-11-20T00:48:50;22.90;;;17.63;;
1837;SDS011;918;50.796;6.772;2022-11-20T00:51:17;20.70;;;17.00;;
1837;SDS011;918;50.796;6.772;2022-11-20T00:53:44;20.40;;;16.40;;
1837;SDS011;918;50.796;6.772;2022-11-20T00:56:10;18.50;;;16.03;;
1837;SDS011;918;50.796;6.772;2022-11-20T00:58:41;21.17;;;17.50;;
1837;SDS011;918;50.796;6.772;2022-11-20T01:01:12;18.87;;;16.87;;
1837;SDS011;918;50.796;6.772;2022-11-20T01:03:38;21.23;;;16.73;;
1837;SDS011;918;50.796;6.772;2022-11-20T01:06:06;21.70;;;16.63;;
1837;SDS011;918;50.796;6.772;2022-11-20T01:08:37;22.13;;;17.90;;
1837;SDS011;918;50.796;6.772;2022-11-20T01:11:04;19.33;;;16.70;;
1837;SDS011;918;50.796;6.772;2022-11-20T01:13:31;19.53;;;17.40;;
1837;SDS011;918;50.796;6.772;2022-11-20T01:16:08;19.57;;;15.87;;
1837;SDS011;918;50.796;6.772;2022-11-20T01:18:36;20.43;;;17.60;;
1837;SDS011;918;50.796;6.772;2022-11-20T01:21:04;20.47;;;16.27;;
1837;SDS011;918;50.796;6.772;2022-11-20T01:23:31;21.77;;;18.10;;
1837;SDS011;918;50.796;6.772;2022-11-20T01:26:01;19.63;;;17.50;;
1837;SDS011;918;50.796;6.772;2022-11-20T01:28:28;20.80;;;17.43;;
1837;SDS011;918;50.796;6.772;2022-11-20T01:30:53;21.27;;;17.90;;
1837;SDS011;918;50.796;6.772;2022-11-20T01:33:18;22.63;;;19.00;;
1837;SDS011;918;50.796;6.772;2022-11-20T01:35:44;19.50;;;16.87;;
1837;SDS011;918;50.796;6.772;2022-11-20T01:38:09;21.30;;;17.50;;
1837;SDS011;918;50.796;6.772;2022-11-20T01:40:34;24.80;;;19.47;;
1837;SDS011;918;50.796;6.772;2022-11-20T01:43:18;22.53;;;20.00;;
1837;SDS011;918;50.796;6.772;2022-11-20T01:48:13;21.60;;;17.37;;
1837;SDS011;918;50.796;6.772;2022-11-20T01:50:39;24.53;;;18.77;;
1837;SDS011;918;50.796;6.772;2022-11-20T01:53:05;24.87;;;20.07;;
1837;SDS011;918;50.796;6.772;2022-11-20T01:55:37;21.17;;;17.40;;
1837;SDS011;918;50.796;6.772;2022-11-20T01:58:05;22.17;;;17.80;;
1837;SDS011;918;50.796;6.772;2022-11-20T02:00:30;21.20;;;17.47;;
1837;SDS011;918;50.796;6.772;2022-11-20T02:02:57;21.70;;;18.00;;
1837;SDS011;918;50.796;6.772;2022-11-20T02:08:14;19.17;;;17.10;;
1837;SDS011;918;50.796;6.772;2022-11-20T02:10:40;20.57;;;17.63;;
1837;SDS011;918;50.796;6.772;2022-11-20T02:13:05;21.70;;;17.93;;
1837;SDS011;918;50.796;6.772;2022-11-20T02:15:49;20.40;;;17.30;;
1837;SDS011;918;50.796;6.772;2022-11-20T02:18:16;20.70;;;17.07;;
1837;SDS011;918;50.796;6.772;2022-11-20T02:20:43;22.07;;;17.13;;
1837;SDS011;918;50.796;6.772;2022-11-20T02:23:13;20.33;;;16.70;;
1837;SDS011;918;50.796;6.772;2022-11-20T02:25:44;24.23;;;16.40;;
1837;SDS011;918;50.796;6.772;2022-11-20T02:28:10;25.67;;;19.30;;
1837;SDS011;918;50.796;6.772;2022-11-20T02:30:36;23.43;;;18.90;;
1837;SDS011;918;50.796;6.772;2022-11-20T02:33:01;23.70;;;19.57;;
1837;SDS011;918;50.796;6.772;2022-11-20T02:37:52;24.17;;;20.17;;
1837;SDS011;918;50.796;6.772;2022-11-20T02:40:19;23.50;;;19.17;;
1837;SDS011;918;50.796;6.772;2022-11-20T02:42:45;21.37;;;17.67;;
1837;SDS011;918;50.796;6.772;2022-11-20T02:45:10;20.07;;;15.80;;
1837;SDS011;918;50.796;6.772;2022-11-20T02:47:35;19.93;;;16.07;;
1837;SDS011;918;50.796;6.772;2022-11-20T02:50:02;16.90;;;15.13;;
1837;SDS011;918;50.796;6.772;2022-11-20T02:52:28;20.63;;;17.70;;
1837;SDS011;918;50.796;6.772;2022-11-20T02:54:53;19.30;;;15.43;;
1837;SDS011;918;50.796;6.772;2022-11-20T02:57:18;22.37;;;17.70;;
1837;SDS011;918;50.796;6.772;2022-11-20T02:59:43;18.63;;;16.30;;
1837;SDS011;918;50.796;6.772;2022-11-20T03:02:09;20.07;;;16.70;;
1837;SDS011;918;50.796;6.772;2022-11-20T03:04:34;19.70;;;16.33;;
1837;SDS011;918;50.796;6.772;2022-11-20T03:06:59;18.63;;;16.63;;
1837;SDS011;918;50.796;6.772;2022-11-20T03:09:24;19.00;;;16.23;;
1837;SDS011;918;50.796;6.772;2022-11-20T03:11:50;21.67;;;17.90;;
1837;SDS011;918;50.796;6.772;2022-11-20T03:14:15;21.60;;;17.20;;
1837;SDS011;918;50.796;6.772;2022-11-20T03:16:40;23.03;;;17.53;;
1837;SDS011;918;50.796;6.772;2022-11-20T03:19:06;25.47;;;19.37;;
1837;SDS011;918;50.796;6.772;2022-11-20T03:21:35;24.37;;;19.60;;
1837;SDS011;918;50.796;6.772;2022-11-20T03:24:00;22.30;;;19.00;;
1837;SDS011;918;50.796;6.772;2022-11-20T03:26:26;24.30;;;18.33;;
1837;SDS011;918;50.796;6.772;2022-11-20T03:28:53;20.03;;;17.00;;
1837;SDS011;918;50.796;6.772;2022-11-20T03:31:21;21.87;;;16.80;;
1837;SDS011;918;50.796;6.772;2022-11-20T03:33:47;20.63;;;16.13;;
1837;SDS011;918;50.796;6.772;2022-11-20T03:36:13;20.67;;;16.57;;
1837;SDS011;918;50.796;6.772;2022-11-20T03:38:40;20.57;;;16.87;;
1837;SDS011;918;50.796;6.772;2022-11-20T03:41:07;21.30;;;16.60;;
1837;SDS011;918;50.796;6.772;2022-11-20T03:43:34;19.80;;;15.60;;
1837;SDS011;918;50.796;6.772;2022-11-20T03:45:59;18.10;;;16.20;;
1837;SDS011;918;50.796;6.772;2022-11-20T03:48:25;21.00;;;16.33;;
1837;SDS011;918;50.796;6.772;2022-11-20T03:50:51;19.67;;;15.10;;
1837;SDS011;918;50.796;6.772;2022-11-20T03:53:17;20.10;;;16.10;;
1837;SDS011;918;50.796;6.772;2022-11-20T03:55:42;17.70;;;15.70;;
1837;SDS011;918;50.796;6.772;2022-11-20T03:58:08;20.73;;;16.70;;
1837;SDS011;918;50.796;6.772;2022-11-20T04:00:34;20.50;;;18.30;;
1837;SDS011;918;50.796;6.772;2022-11-20T04:02:59;22.00;;;16.50;;
1837;SDS011;918;50.796;6.772;2022-11-20T04:05:28;22.20;;;16.30;;
1837;SDS011;918;50.796;6.772;2022-11-20T04:07:53;20.10;;;16.83;;
1837;SDS011;918;50.796;6.772;2022-11-20T04:10:19;19.93;;;16.10;;
1837;SDS011;918;50.796;6.772;2022-11-20T04:12:44;22.77;;;17.00;;
1837;SDS011;918;50.796;6.772;2022-11-20T04:15:09;19.30;;;15.90;;
1837;SDS011;918;50.796;6.772;2022-11-20T04:17:35;20.80;;;16.87;;
1837;SDS011;918;50.796;6.772;2022-11-20T04:20:00;23.03;;;17.47;;
1837;SDS011;918;50.796;6.772;2022-11-20T04:22:26;21.10;;;17.43;;
1837;SDS011;918;50.796;6.772;2022-11-20T04:24:51;20.50;;;16.10;;
1837;SDS011;918;50.796;6.772;2022-11-20T04:27:16;20.40;;;16.13;;
1837;SDS011;918;50.796;6.772;2022-11-20T04:29:42;21.07;;;17.77;;
1837;SDS011;918;50.796;6.772;2022-11-20T04:32:07;21.57;;;16.47;;
1837;SDS011;918;50.796;6.772;2022-11-20T04:34:32;21.00;;;16.73;;
1837;SDS011;918;50.796;6.772;2022-11-20T04:36:58;20.90;;;16.70;;
1837;SDS011;918;50.796;6.772;2022-11-20T04:39:23;21.27;;;16.80;;
1837;SDS011;918;50.796;6.772;2022-11-20T04:41:48;20.10;;;16.47;;
1837;SDS011;918;50.796;6.772;2022-11-20T04:44:33;20.40;;;15.90;;
1837;SDS011;918;50.796;6.772;2022-11-20T04:46:58;23.23;;;16.77;;
1837;SDS011;918;50.796;6.772;2022-11-20T04:49:24;22.73;;;18.60;;
1837;SDS011;918;50.796;6.772;2022-11-20T04:51:49;21.23;;;16.80;;
1837;SDS011;918;50.796;6.772;2022-11-20T04:54:18;24.13;;;17.67;;
1837;SDS011;918;50.796;6.772;2022-11-20T04:56:45;24.23;;;18.50;;
1837;SDS011;918;50.796;6.772;2022-11-20T04:59:12;21.00;;;16.67;;
1837;SDS011;918;50.796;6.772;2022-11-20T05:01:37;23.20;;;17.87;;
1837;SDS011;918;50.796;6.772;2022-11-20T05:04:02;23.00;;;17.70;;
1837;SDS011;918;50.796;6.772;2022-11-20T05:06:28;23.07;;;17.63;;
1837;SDS011;918;50.796;6.772;2022-11-20T05:08:53;22.20;;;17.23;;
1837;SDS011;918;50.796;6.772;2022-11-20T05:11:19;21.50;;;17.47;;
1837;SDS011;918;50.796;6.772;2022-11-20T05:13:45;22.00;;;17.20;;
1837;SDS011;918;50.796;6.772;2022-11-20T05:16:11;22.77;;;17.40;;
1837;SDS011;918;50.796;6.772;2022-11-20T05:18:38;21.50;;;17.67;;
1837;SDS011;918;50.796;6.772;2022-11-20T05:21:04;24.80;;;18.80;;
1837;SDS011;918;50.796;6.772;2022-11-20T05:23:31;23.73;;;18.93;;
1837;SDS011;918;50.796;6.772;2022-11-20T05:25:57;25.00;;;19.00;;
1837;SDS011;918;50.796;6.772;2022-11-20T05:28:23;24.13;;;18.40;;
1837;SDS011;918;50.796;6.772;2022-11-20T05:30:48;24.17;;;18.30;;
1837;SDS011;918;50.796;6.772;2022-11-20T05:33:14;25.07;;;18.90;;
1837;SDS011;918;50.796;6.772;2022-11-20T05:35:39;23.00;;;17.83;;
1837;SDS011;918;50.796;6.772;2022-11-20T05:38:04;20.83;;;17.10;;
1837;SDS011;918;50.796;6.772;2022-11-20T05:40:29;23.90;;;18.80;;
1837;SDS011;918;50.796;6.772;2022-11-20T05:42:55;22.37;;;17.87;;
1837;SDS011;918;50.796;6.772;2022-11-20T05:45:20;19.70;;;16.73;;
1837;SDS011;918;50.796;6.772;2022-11-20T05:47:45;22.43;;;17.97;;
1837;SDS011;918;50.796;6.772;2022-11-20T05:50:11;21.63;;;17.87;;
1837;SDS011;918;50.796;6.772;2022-11-20T05:52:36;22.23;;;17.83;;
1837;SDS011;918;50.796;6.772;2022-11-20T05:55:01;22.60;;;17.40;;
1837;SDS011;918;50.796;6.772;2022-11-20T05:57:27;21.43;;;16.63;;
1837;SDS011;918;50.796;6.772;2022-11-20T05:59:52;20.53;;;17.37;;
1837;SDS011;918;50.796;6.772;2022-11-20T06:02:17;22.53;;;17.30;;
1837;SDS011;918;50.796;6.772;2022-11-20T06:04:42;23.67;;;17.30;;
1837;SDS011;918;50.796;6.772;2022-11-20T06:07:08;20.93;;;17.00;;
1837;SDS011;918;50.796;6.772;2022-11-20T06:09:33;25.00;;;18.03;;
1837;SDS011;918;50.796;6.772;2022-11-20T06:11:58;24.60;;;18.13;;
1837;SDS011;918;50.796;6.772;2022-11-20T06:14:23;25.17;;;18.07;;
1837;SDS011;918;50.796;6.772;2022-11-20T06:16:49;20.50;;;18.30;;
1837;SDS011;918;50.796;6.772;2022-11-20T06:19:14;22.20;;;17.83;;
1837;SDS011;918;50.796;6.772;2022-11-20T06:21:40;20.70;;;16.80;;
1837;SDS011;918;50.796;6.772;2022-11-20T06:24:05;23.37;;;18.10;;
1837;SDS011;918;50.796;6.772;2022-11-20T06:26:31;23.07;;;16.90;;
1837;SDS011;918;50.796;6.772;2022-11-20T06:28:56;22.53;;;18.30;;
1837;SDS011;918;50.796;6.772;2022-11-20T06:31:22;22.20;;;17.50;;
1837;SDS011;918;50.796;6.772;2022-11-20T06:33:49;21.67;;;17.57;;
1837;SDS011;918;50.796;6.772;2022-11-20T06:36:15;21.70;;;18.37;;
1837;SDS011;918;50.796;6.772;2022-11-20T06:38:42;24.00;;;19.57;;
1837;SDS011;918;50.796;6.772;2022-11-20T06:41:10;22.90;;;19.00;;
1837;SDS011;918;50.796;6.772;2022-11-20T06:43:37;24.00;;;19.90;;
1837;SDS011;918;50.796;6.772;2022-11-20T06:46:02;23.27;;;17.60;;
1837;SDS011;918;50.796;6.772;2022-11-20T06:48:28;24.03;;;18.07;;
1837;SDS011;918;50.796;6.772;2022-11-20T06:50:54;24.30;;;19.00;;
1837;SDS011;918;50.796;6.772;2022-11-20T06:53:19;20.07;;;17.47;;
1837;SDS011;918;50.796;6.772;2022-11-20T06:55:45;20.80;;;17.77;;
1837;SDS011;918;50.796;6.772;2022-11-20T06:58:11;21.53;;;17.93;;
1837;SDS011;918;50.796;6.772;2022-11-20T07:00:37;23.13;;;18.27;;
1837;SDS011;918;50.796;6.772;2022-11-20T07:03:03;24.03;;;19.13;;
1837;SDS011;918;50.796;6.772;2022-11-20T07:05:29;23.00;;;18.87;;
1837;SDS011;918;50.796;6.772;2022-11-20T07:07:55;23.13;;;19.07;;
1837;SDS011;918;50.796;6.772;2022-11-20T07:10:24;24.83;;;20.77;;
1837;SDS011;918;50.796;6.772;2022-11-20T07:12:50;24.20;;;19.20;;
1837;SDS011;918;50.796;6.772;2022-11-20T07:15:15;23.70;;;18.50;;
1837;SDS011;918;50.796;6.772;2022-11-20T07:17:41;23.27;;;18.80;;
1837;SDS011;918;50.796;6.772;2022-11-20T07:20:06;22.80;;;17.73;;
1837;SDS011;918;50.796;6.772;2022-11-20T07:22:32;22.80;;;19.70;;
1837;SDS011;918;50.796;6.772;2022-11-20T07:24:57;21.60;;;18.30;;
1837;SDS011;918;50.796;6.772;2022-11-20T07:27:22;25.00;;;19.87;;
1837;SDS011;918;50.796;6.772;2022-11-20T07:29:48;22.93;;;18.33;;
1837;SDS011;918;50.796;6.772;2022-11-20T07:32:13;26.90;;;19.60;;
1837;SDS011;918;50.796;6.772;2022-11-20T07:34:38;24.23;;;20.17;;
1837;SDS011;918;50.796;6.772;2022-11-20T07:37:03;23.40;;;18.10;;
1837;SDS011;918;50.796;6.772;2022-11-20T07:39:28;25.17;;;18.77;;
1837;SDS011;918;50.796;6.772;2022-11-20T07:41:54;24.67;;;19.87;;
1837;SDS011;918;50.796;6.772;2022-11-20T07:44:19;26.07;;;19.77;;
1837;SDS011;918;50.796;6.772;2022-11-20T07:46:44;25.20;;;20.30;;
1837;SDS011;918;50.796;6.772;2022-11-20T07:49:09;24.30;;;20.40;;
1837;SDS011;918;50.796;6.772;2022-11-20T07:51:35;26.60;;;20.30;;
1837;SDS011;918;50.796;6.772;2022-11-20T07:54:00;28.43;;;22.03;;
1837;SDS011;918;50.796;6.772;2022-11-20T07:56:25;27.43;;;20.93;;
1837;SDS011;918;50.796;6.772;2022-11-20T07:58:51;26.30;;;20.37;;
1837;SDS011;918;50.796;6.772;2022-11-20T08:01:16;29.27;;;22.30;;
1837;SDS011;918;50.796;6.772;2022-11-20T08:03:41;27.47;;;20.37;;
1837;SDS011;918;50.796;6.772;2022-11-20T08:06:07;25.87;;;19.90;;
1837;SDS011;918;50.796;6.772;2022-11-20T08:08:32;27.83;;;20.03;;
1837;SDS011;918;50.796;6.772;2022-11-20T08:10:57;27.13;;;20.80;;
1837;SDS011;918;50.796;6.772;2022-11-20T08:13:43;24.30;;;20.97;;
1837;SDS011;918;50.796;6.772;2022-11-20T08:16:27;27.53;;;21.30;;
1837;SDS011;918;50.796;6.772;2022-11-20T08:18:53;26.03;;;20.43;;
1837;SDS011;918;50.796;6.772;2022-11-20T08:21:18;29.20;;;21.77;;
1837;SDS011;918;50.796;6.772;2022-11-20T08:23:43;30.63;;;20.80;;
1837;SDS011;918;50.796;6.772;2022-11-20T08:26:09;27.00;;;20.53;;
1837;SDS011;918;50.796;6.772;2022-11-20T08:28:34;29.17;;;20.80;;
1837;SDS011;918;50.796;6.772;2022-11-20T08:30:59;26.03;;;19.83;;
1837;SDS011;918;50.796;6.772;2022-11-20T08:33:25;26.73;;;20.30;;
1837;SDS011;918;50.796;6.772;2022-11-20T08:35:50;28.73;;;22.20;;
1837;SDS011;918;50.796;6.772;2022-11-20T08:38:16;28.53;;;21.30;;
1837;SDS011;918;50.796;6.772;2022-11-20T08:40:41;25.03;;;20.27;;
1837;SDS011;918;50.796;6.772;2022-11-20T08:43:26;26.60;;;22.63;;
1837;SDS011;918;50.796;6.772;2022-11-20T08:45:51;25.17;;;19.00;;
1837;SDS011;918;50.796;6.772;2022-11-20T08:48:17;23.10;;;19.60;;
1837;SDS011;918;50.796;6.772;2022-11-20T08:50:42;24.87;;;19.47;;
1837;SDS011;918;50.796;6.772;2022-11-20T08:53:07;26.23;;;19.93;;
1837;SDS011;918;50.796;6.772;2022-11-20T08:55:32;25.70;;;20.00;;
1837;SDS011;918;50.796;6.772;2022-11-20T08:58:03;25.30;;;20.30;;
1837;SDS011;918;50.796;6.772;2022-11-20T09:00:29;22.63;;;19.67;;
1837;SDS011;918;50.796;6.772;2022-11-20T09:02:54;24.00;;;18.43;;
1837;SDS011;918;50.796;6.772;2022-11-20T09:05:19;24.97;;;18.70;;
1837;SDS011;918;50.796;6.772;2022-11-20T09:07:44;24.67;;;19.73;;
1837;SDS011;918;50.796;6.772;2022-11-20T09:10:10;26.03;;;18.70;;
1837;SDS011;918;50.796;6.772;2022-11-20T09:12:35;27.07;;;21.07;;
1837;SDS011;918;50.796;6.772;2022-11-20T09:15:00;23.67;;;19.17;;
1837;SDS011;918;50.796;6.772;2022-11-20T09:17:25;24.90;;;18.77;;
1837;SDS011;918;50.796;6.772;2022-11-20T09:19:51;21.73;;;17.57;;
1837;SDS011;918;50.796;6.772;2022-11-20T09:22:16;26.00;;;19.53;;
1837;SDS011;918;50.796;6.772;2022-11-20T09:24:41;20.40;;;15.93;;
1837;SDS011;918;50.796;6.772;2022-11-20T09:27:07;23.80;;;19.70;;
1837;SDS011;918;50.796;6.772;2022-11-20T09:29:33;22.60;;;18.60;;
1837;SDS011;918;50.796;6.772;2022-11-20T09:31:58;23.17;;;19.27;;
1837;SDS011;918;50.796;6.772;2022-11-20T09:34:23;21.43;;;19.23;;
1837;SDS011;918;50.796;6.772;2022-11-20T09:36:48;24.53;;;18.97;;
1837;SDS011;918;50.796;6.772;2022-11-20T09:39:14;20.20;;;17.80;;
1837;SDS011;918;50.796;6.772;2022-11-20T09:44:54;21.03;;;16.77;;
1837;SDS011;918;50.796;6.772;2022-11-20T09:53:11;20.63;;;17.53;;
1837;SDS011;918;50.796;6.772;2022-11-20T09:55:38;20.87;;;17.20;;
1837;SDS011;918;50.796;6.772;2022-11-20T09:58:07;21.30;;;18.00;;
1837;SDS011;918;50.796;6.772;2022-11-20T10:00:40;20.47;;;16.70;;
1837;SDS011;918;50.796;6.772;2022-11-20T10:03:11;21.73;;;19.17;;
1837;SDS011;918;50.796;6.772;2022-11-20T10:05:44;19.63;;;17.53;;
1837;SDS011;918;50.796;6.772;2022-11-20T10:08:21;19.70;;;16.73;;
1837;SDS011;918;50.796;6.772;2022-11-20T10:19:10;20.83;;;17.03;;
1837;SDS011;918;50.796;6.772;2022-11-20T10:21:52;19.60;;;16.00;;
1837;SDS011;918;50.796;6.772;2022-11-20T10:24:34;20.77;;;16.30;;
1837;SDS011;918;50.796;6.772;2022-11-20T10:30:06;17.27;;;15.17;;
1837;SDS011;918;50.796;6.772;2022-11-20T10:32:37;20.10;;;16.07;;
1837;SDS011;918;50.796;6.772;2022-11-20T10:35:06;20.07;;;16.90;;
1837;SDS011;918;50.796;6.772;2022-11-20T10:37:46;23.33;;;20.93;;
1837;SDS011;918;50.796;6.772;2022-11-20T10:43:16;20.13;;;16.73;;
1837;SDS011;918;50.796;6.772;2022-11-20T10:48:16;16.83;;;14.93;;
1837;SDS011;918;50.796;6.772;2022-11-20T10:51:31;18.43;;;15.80;;
1837;SDS011;918;50.796;6.772;2022-11-20T10:53:38;17.70;;;15.80;;
1837;SDS011;918;50.796;6.772;2022-11-20T11:01:51;20.20;;;16.63;;
1837;SDS011;918;50.796;6.772;2022-11-20T11:07:15;19.57;;;15.93;;
1837;SDS011;918;50.796;6.772;2022-11-20T11:12:46;18.73;;;16.43;;
1837;SDS011;918;50.796;6.772;2022-11-20T11:15:29;19.20;;;14.60;;
1837;SDS011;918;50.796;6.772;2022-11-20T11:18:00;18.33;;;16.40;;
1837;SDS011;918;50.796;6.772;2022-11-20T11:20:26;18.07;;;14.80;;
1837;SDS011;918;50.796;6.772;2022-11-20T11:22:53;17.07;;;13.90;;
1837;SDS011;918;50.796;6.772;2022-11-20T11:27:49;20.50;;;15.93;;
1837;SDS011;918;50.796;6.772;2022-11-20T11:30:15;19.60;;;16.67;;
1837;SDS011;918;50.796;6.772;2022-11-20T11:32:42;19.57;;;15.57;;
1837;SDS011;918;50.796;6.772;2022-11-20T11:35:21;20.70;;;17.97;;
1837;SDS011;918;50.796;6.772;2022-11-20T11:37:48;18.47;;;16.50;;
1837;SDS011;918;50.796;6.772;2022-11-20T11:40:14;20.33;;;17.23;;
1837;SDS011;918;50.796;6.772;2022-11-20T11:42:43;18.17;;;15.73;;
1837;SDS011;918;50.796;6.772;2022-11-20T11:45:15;19.50;;;16.00;;
1837;SDS011;918;50.796;6.772;2022-11-20T11:52:46;22.30;;;17.90;;
1837;SDS011;918;50.796;6.772;2022-11-20T11:58:39;24.67;;;16.17;;
1837;SDS011;918;50.796;6.772;2022-11-20T12:03:37;19.57;;;16.10;;
1837;SDS011;918;50.796;6.772;2022-11-20T12:06:14;22.20;;;17.80;;
1837;SDS011;918;50.796;6.772;2022-11-20T12:08:44;22.97;;;17.03;;
1837;SDS011;918;50.796;6.772;2022-11-20T12:14:34;19.13;;;16.50;;
1837;SDS011;918;50.796;6.772;2022-11-20T12:17:02;21.23;;;16.57;;
1837;SDS011;918;50.796;6.772;2022-11-20T12:19:29;17.87;;;15.80;;
1837;SDS011;918;50.796;6.772;2022-11-20T12:22:02;22.70;;;17.67;;
1837;SDS011;918;50.796;6.772;2022-11-20T12:24:43;18.30;;;15.70;;
1837;SDS011;918;50.796;6.772;2022-11-20T12:27:27;16.73;;;14.87;;
1837;SDS011;918;50.796;6.772;2022-11-20T12:30:02;19.90;;;15.27;;
1837;SDS011;918;50.796;6.772;2022-11-20T12:41:07;18.57;;;14.00;;
1837;SDS011;918;50.796;6.772;2022-11-20T12:44:51;18.80;;;15.33;;
1837;SDS011;918;50.796;6.772;2022-11-20T12:47:47;20.03;;;15.10;;
1837;SDS011;918;50.796;6.772;2022-11-20T12:53:25;15.50;;;13.63;;
1837;SDS011;918;50.796;6.772;2022-11-20T12:58:55;18.60;;;14.83;;
1837;SDS011;918;50.796;6.772;2022-11-20T13:01:40;16.97;;;14.27;;
1837;SDS011;918;50.796;6.772;2022-11-20T13:06:44;20.70;;;17.20;;
1837;SDS011;918;50.796;6.772;2022-11-20T13:09:11;18.37;;;14.47;;
1837;SDS011;918;50.796;6.772;2022-11-20T13:11:44;17.13;;;13.97;;
1837;SDS011;918;50.796;6.772;2022-11-20T13:17:19;16.30;;;14.17;;
1837;SDS011;918;50.796;6.772;2022-11-20T13:20:05;17.23;;;15.27;;
1837;SDS011;918;50.796;6.772;2022-11-20T13:25:26;20.50;;;15.90;;
1837;SDS011;918;50.796;6.772;2022-11-20T13:27:52;19.60;;;16.67;;
1837;SDS011;918;50.796;6.772;2022-11-20T13:30:19;15.77;;;14.00;;
1837;SDS011;918;50.796;6.772;2022-11-20T13:32:55;21.00;;;16.07;;
1837;SDS011;918;50.796;6.772;2022-11-20T13:35:29;18.70;;;15.53;;
1837;SDS011;918;50.796;6.772;2022-11-20T13:38:09;30.93;;;15.43;;
1837;SDS011;918;50.796;6.772;2022-11-20T13:40:36;18.50;;;15.60;;
1837;SDS011;918;50.796;6.772;2022-11-20T13:45:53;17.07;;;14.80;;
1837;SDS011;918;50.796;6.772;2022-11-20T13:48:28;16.97;;;15.13;;
1837;SDS011;918;50.796;6.772;2022-11-20T13:51:42;18.00;;;14.67;;
1837;SDS011;918;50.796;6.772;2022-11-20T13:53:51;18.33;;;15.37;;
1837;SDS011;918;50.796;6.772;2022-11-20T13:56:34;14.60;;;13.03;;
1837;SDS011;918;50.796;6.772;2022-11-20T14:01:58;18.57;;;15.77;;
1837;SDS011;918;50.796;6.772;2022-11-20T14:04:35;19.00;;;16.13;;
1837;SDS011;918;50.796;6.772;2022-11-20T14:07:01;38.83;;;18.07;;
1837;SDS011;918;50.796;6.772;2022-11-20T14:09:31;21.40;;;16.03;;
1837;SDS011;918;50.796;6.772;2022-11-20T14:11:57;16.97;;;14.70;;
1837;SDS011;918;50.796;6.772;2022-11-20T14:14:27;20.50;;;14.87;;
1837;SDS011;918;50.796;6.772;2022-11-20T14:17:07;15.17;;;13.57;;
1837;SDS011;918;50.796;6.772;2022-11-20T14:19:52;18.63;;;14.00;;
1837;SDS011;918;50.796;6.772;2022-11-20T14:22:21;16.47;;;14.53;;
1837;SDS011;918;50.796;6.772;2022-11-20T14:24:48;20.80;;;15.93;;
1837;SDS011;918;50.796;6.772;2022-11-20T14:27:18;18.50;;;14.40;;
1837;SDS011;918;50.796;6.772;2022-11-20T14:29:45;16.93;;;14.37;;
1837;SDS011;918;50.796;6.772;2022-11-20T14:32:13;18.37;;;15.77;;
1837;SDS011;918;50.796;6.772;2022-11-20T14:34:40;17.70;;;14.87;;
1837;SDS011;918;50.796;6.772;2022-11-20T14:37:10;20.60;;;16.87;;
1837;SDS011;918;50.796;6.772;2022-11-20T14:39:40;19.50;;;16.10;;
1837;SDS011;918;50.796;6.772;2022-11-20T14:42:16;18.43;;;15.40;;
1837;SDS011;918;50.796;6.772;2022-11-20T14:44:46;19.43;;;15.40;;
1837;SDS011;918;50.796;6.772;2022-11-20T14:47:13;20.20;;;16.47;;
1837;SDS011;918;50.796;6.772;2022-11-20T14:49:42;20.37;;;15.03;;
1837;SDS011;918;50.796;6.772;2022-11-20T14:52:21;19.93;;;15.30;;
1837;SDS011;918;50.796;6.772;2022-11-20T14:54:48;17.50;;;15.17;;
1837;SDS011;918;50.796;6.772;2022-11-20T14:59:51;17.33;;;14.00;;
1837;SDS011;918;50.796;6.772;2022-11-20T15:02:17;18.23;;;15.77;;
1837;SDS011;918;50.796;6.772;2022-11-20T15:07:10;5.60;;;5.03;;
1837;SDS011;918;50.796;6.772;2022-11-20T15:09:35;4.00;;;3.60;;
1837;SDS011;918;50.796;6.772;2022-11-20T15:12:01;2.33;;;1.93;;
1837;SDS011;918;50.796;6.772;2022-11-20T15:14:28;2.70;;;2.50;;
1837;SDS011;918;50.796;6.772;2022-11-20T15:16:55;4.67;;;4.27;;
1837;SDS011;918;50.796;6.772;2022-11-20T15:19:24;4.70;;;4.30;;
1837;SDS011;918;50.796;6.772;2022-11-20T15:21:51;7.20;;;3.60;;
1837;SDS011;918;50.796;6.772;2022-11-20T15:24:17;5.40;;;4.60;;
1837;SDS011;918;50.796;6.772;2022-11-20T15:26:42;5.30;;;3.80;;
1837;SDS011;918;50.796;6.772;2022-11-20T15:29:10;4.50;;;4.17;;
1837;SDS011;918;50.796;6.772;2022-11-20T15:31:36;4.43;;;3.70;;
1837;SDS011;918;50.796;6.772;2022-11-20T15:34:02;3.97;;;3.57;;
1837;SDS011;918;50.796;6.772;2022-11-20T15:36:31;3.37;;;3.07;;
1837;SDS011;918;50.796;6.772;2022-11-20T15:38:57;3.37;;;3.17;;
1837;SDS011;918;50.796;6.772;2022-11-20T15:41:22;3.13;;;2.57;;
1837;SDS011;918;50.796;6.772;2022-11-20T15:43:48;2.03;;;1.80;;
1837;SDS011;918;50.796;6.772;2022-11-20T15:46:15;3.90;;;2.57;;
1837;SDS011;918;50.796;6.772;2022-11-20T15:48:42;2.70;;;2.50;;
1837;SDS011;918;50.796;6.772;2022-11-20T15:53:35;3.63;;;3.43;;
1837;SDS011;918;50.796;6.772;2022-11-20T15:56:02;4.13;;;2.90;;
1837;SDS011;918;50.796;6.772;2022-11-20T15:58:28;2.43;;;2.23;;
1837;SDS011;918;50.796;6.772;2022-11-20T16:00:53;3.20;;;2.80;;
1837;SDS011;918;50.796;6.772;2022-11-20T16:03:19;5.43;;;2.20;;
1837;SDS011;918;50.796;6.772;2022-11-20T16:05:45;3.70;;;2.00;;
1837;SDS011;918;50.796;6.772;2022-11-20T16:08:10;2.47;;;1.90;;
1837;SDS011;918;50.796;6.772;2022-11-20T16:10:38;2.53;;;2.33;;
1837;SDS011;918;50.796;6.772;2022-11-20T16:13:04;5.67;;;5.10;;
1837;SDS011;918;50.796;6.772;2022-11-20T16:15:52;6.50;;;6.10;;
1837;SDS011;918;50.796;6.772;2022-11-20T16:18:21;6.50;;;6.00;;
1837;SDS011;918;50.796;6.772;2022-11-20T16:20:48;5.73;;;4.97;;
1837;SDS011;918;50.796;6.772;2022-11-20T16:23:16;3.57;;;3.00;;
1837;SDS011;918;50.796;6.772;2022-11-20T16:25:42;5.60;;;4.73;;
1837;SDS011;918;50.796;6.772;2022-11-20T16:28:08;4.50;;;3.27;;
1837;SDS011;918;50.796;6.772;2022-11-20T16:30:35;4.67;;;4.23;;
1837;SDS011;918;50.796;6.772;2022-11-20T16:33:00;4.53;;;3.90;;
1837;SDS011;918;50.796;6.772;2022-11-20T16:35:27;5.20;;;3.90;;
1837;SDS011;918;50.796;6.772;2022-11-20T16:37:54;4.10;;;3.80;;
1837;SDS011;918;50.796;6.772;2022-11-20T16:40:20;5.43;;;3.77;;
1837;SDS011;918;50.796;6.772;2022-11-20T16:42:45;3.93;;;3.63;;
1837;SDS011;918;50.796;6.772;2022-11-20T16:45:10;3.67;;;3.20;;
1837;SDS011;918;50.796;6.772;2022-11-20T16:47:36;5.10;;;4.00;;